createdAt,value
2023-03-04T00:00:48.052Z,11.57
2023-03-04T00:03:15.796Z,15.57
2023-03-04T00:05:42.956Z,19.55
2023-03-04T00:08:09.996Z,17.77
2023-03-04T00:10:38.426Z,10.32
2023-03-04T00:13:05.488Z,14.05
2023-03-04T00:15:32.833Z,13.48
2023-03-04T00:17:59.845Z,19.80
2023-03-04T00:20:26.934Z,14.95
2023-03-04T00:22:54.359Z,15.48
2023-03-04T00:25:21.414Z,12.35
2023-03-04T00:27:48.677Z,12.80
2023-03-04T00:30:16.032Z,15.43
2023-03-04T00:32:43.859Z,16.55
2023-03-04T00:35:11.235Z,13.57
2023-03-04T00:37:38.404Z,13.68
2023-03-04T00:40:06.468Z,14.45
2023-03-04T00:42:33.453Z,13.70
2023-03-04T00:45:00.845Z,16.75
2023-03-04T00:47:27.978Z,15.40
2023-03-04T00:49:55.025Z,15.77
2023-03-04T00:52:22.046Z,15.95
2023-03-04T00:54:49.330Z,11.95
2023-03-04T00:57:16.147Z,16.55
2023-03-04T00:59:43.929Z,10.82
2023-03-04T01:02:11.385Z,17.77
2023-03-04T01:04:38.929Z,19.55
2023-03-04T01:07:06.165Z,14.52
2023-03-04T01:09:33.391Z,11.93
2023-03-04T01:12:00.668Z,20.38
2023-03-04T01:14:28.458Z,17.17
2023-03-04T01:16:56.165Z,13.77
2023-03-04T01:19:23.471Z,13.40
2023-03-04T01:21:50.890Z,13.52
2023-03-04T01:24:18.079Z,16.00
2023-03-04T01:26:45.678Z,17.30
2023-03-04T01:29:13.165Z,20.58
2023-03-04T01:31:41.001Z,14.13
2023-03-04T01:34:10.268Z,19.05
2023-03-04T01:36:37.707Z,23.33
2023-03-04T01:39:05.306Z,19.80
2023-03-04T01:41:32.980Z,17.67
2023-03-04T01:44:02.584Z,24.35
2023-03-04T01:46:31.683Z,18.83
2023-03-04T01:48:59.450Z,20.35
2023-03-04T01:51:26.727Z,19.75
2023-03-04T01:53:55.148Z,20.60
2023-03-04T01:56:52.013Z,19.20
2023-03-04T01:59:26.694Z,15.35
2023-03-04T02:02:00.162Z,14.80
2023-03-04T02:04:29.830Z,18.30
2023-03-04T02:06:58.418Z,21.67
2023-03-04T02:09:25.679Z,16.50
2023-03-04T02:11:53.598Z,14.30
2023-03-04T02:14:21.239Z,19.10
2023-03-04T02:16:49.595Z,18.10
2023-03-04T02:19:32.169Z,19.13
2023-03-04T02:21:59.581Z,18.85
2023-03-04T02:24:32.696Z,26.30
2023-03-04T02:27:00.124Z,22.50
2023-03-04T02:29:29.123Z,23.55
2023-03-04T02:31:56.879Z,16.60
2023-03-04T02:34:43.118Z,17.30
2023-03-04T02:37:11.794Z,14.70
2023-03-04T02:39:47.676Z,17.10
2023-03-04T02:42:16.315Z,19.33
2023-03-04T02:44:47.849Z,14.55
2023-03-04T02:47:18.470Z,19.13
2023-03-04T02:49:47.315Z,16.13
2023-03-04T02:52:20.624Z,16.48
2023-03-04T02:54:47.842Z,16.00
2023-03-04T02:57:16.660Z,17.05
2023-03-04T02:59:47.164Z,17.60
2023-03-04T03:02:18.759Z,16.05
2023-03-04T03:04:46.295Z,24.33
2023-03-04T03:07:15.951Z,19.25
2023-03-04T03:09:43.624Z,24.10
2023-03-04T03:12:11.032Z,14.63
2023-03-04T03:14:38.296Z,19.85
2023-03-04T03:17:06.604Z,14.85
2023-03-04T03:19:33.787Z,17.63
2023-03-04T03:22:04.015Z,16.85
2023-03-04T03:24:31.163Z,20.73
2023-03-04T03:26:58.372Z,19.45
2023-03-04T03:29:25.678Z,19.58
2023-03-04T03:31:53.480Z,14.20
2023-03-04T03:34:21.567Z,19.52
2023-03-04T03:36:49.946Z,21.95
2023-03-04T03:39:17.869Z,22.02
2023-03-04T03:41:45.129Z,19.92
2023-03-04T03:44:12.482Z,20.20
2023-03-04T03:46:39.743Z,23.45
2023-03-04T03:49:07.448Z,21.27
2023-03-04T03:51:35.427Z,17.92
2023-03-04T03:54:02.852Z,23.00
2023-03-04T03:56:30.196Z,26.17
2023-03-04T03:58:57.677Z,19.00
2023-03-04T04:01:24.777Z,22.42
2023-03-04T04:03:51.965Z,23.23
2023-03-04T04:06:19.260Z,15.63
2023-03-04T04:08:46.409Z,10.32
2023-03-04T04:11:13.626Z,16.02
2023-03-04T04:13:40.642Z,9.15
2023-03-04T04:16:08.747Z,23.08
2023-03-04T04:18:36.085Z,19.45
2023-03-04T04:21:03.950Z,13.05
2023-03-04T04:23:31.279Z,14.02
2023-03-04T04:25:59.206Z,12.68
2023-03-04T04:28:26.466Z,10.40
2023-03-04T04:30:53.556Z,13.80
2023-03-04T04:33:20.729Z,14.82
2023-03-04T04:35:48.066Z,9.48
2023-03-04T04:38:15.138Z,8.98
2023-03-04T04:40:43.114Z,12.07
2023-03-04T04:43:10.471Z,12.23
2023-03-04T04:45:37.482Z,28.00
2023-03-04T04:48:04.982Z,22.15
2023-03-04T04:50:33.125Z,17.70
2023-03-04T04:53:00.750Z,16.85
2023-03-04T04:55:28.626Z,20.10
2023-03-04T04:57:56.017Z,13.00
2023-03-04T05:00:23.343Z,19.35
2023-03-04T05:02:50.524Z,19.52
2023-03-04T05:05:17.746Z,24.55
2023-03-04T05:07:44.907Z,14.95
2023-03-04T05:10:12.294Z,16.60
2023-03-04T05:12:39.433Z,19.80
2023-03-04T05:15:06.821Z,21.80
2023-03-04T05:17:33.788Z,21.30
2023-03-04T05:20:00.982Z,18.20
2023-03-04T05:22:27.977Z,18.92
2023-03-04T05:24:55.437Z,26.67
2023-03-04T05:27:22.674Z,24.80
2023-03-04T05:29:49.842Z,20.58
2023-03-04T05:32:16.945Z,19.25
2023-03-04T05:34:44.304Z,18.60
2023-03-04T05:37:11.505Z,16.23
2023-03-04T05:39:38.685Z,20.77
2023-03-04T05:42:05.818Z,24.38
2023-03-04T05:44:32.844Z,18.08
2023-03-04T05:46:59.884Z,14.70
2023-03-04T05:49:27.018Z,14.73
2023-03-04T05:51:54.367Z,14.80
2023-03-04T05:54:21.829Z,20.95
2023-03-04T05:56:48.888Z,18.48
2023-03-04T05:59:20.707Z,20.40
2023-03-04T06:01:48.664Z,17.42
2023-03-04T06:04:15.903Z,13.38
2023-03-04T06:06:43.060Z,13.02
2023-03-04T06:09:10.448Z,21.83
2023-03-04T06:11:37.519Z,14.88
2023-03-04T06:14:04.528Z,15.25
2023-03-04T06:16:31.930Z,22.52
2023-03-04T06:18:59.390Z,16.02
2023-03-04T06:21:26.696Z,10.95
2023-03-04T06:23:53.780Z,21.13
2023-03-04T06:26:20.853Z,22.45
2023-03-04T06:28:47.969Z,20.75
2023-03-04T06:31:15.439Z,22.10
2023-03-04T06:33:42.529Z,12.88
2023-03-04T06:36:09.693Z,20.75
2023-03-04T06:38:36.800Z,22.63
2023-03-04T06:41:11.678Z,17.08
2023-03-04T06:43:39.920Z,18.38
2023-03-04T06:46:07.905Z,17.85
2023-03-04T06:48:35.096Z,19.58
2023-03-04T06:51:06.913Z,19.77
2023-03-04T06:53:33.874Z,15.43
2023-03-04T06:56:00.973Z,18.92
2023-03-04T06:58:28.036Z,24.70
2023-03-04T07:00:55.063Z,18.20
2023-03-04T07:03:22.480Z,20.48
2023-03-04T07:05:50.386Z,17.08
2023-03-04T07:08:17.443Z,21.13
2023-03-04T07:10:44.622Z,22.48
2023-03-04T07:13:11.815Z,18.58
2023-03-04T07:15:38.925Z,17.95
2023-03-04T07:18:06.127Z,18.70
2023-03-04T07:20:33.269Z,19.42
2023-03-04T07:23:00.514Z,20.70
2023-03-04T07:25:27.734Z,19.90
2023-03-04T07:27:54.802Z,23.48
2023-03-04T07:30:23.447Z,27.75
2023-03-04T07:32:50.719Z,24.67
2023-03-04T07:35:18.123Z,26.75
2023-03-04T07:37:45.834Z,27.42
2023-03-04T07:40:13.176Z,28.02
2023-03-04T07:42:40.422Z,24.73
2023-03-04T07:45:12.068Z,22.80
2023-03-04T07:47:40.055Z,22.63
2023-03-04T07:50:07.716Z,23.98
2023-03-04T07:52:38.924Z,24.65
2023-03-04T07:55:06.576Z,22.70
2023-03-04T07:57:33.706Z,20.00
2023-03-04T08:00:01.318Z,26.90
2023-03-04T08:02:30.497Z,18.17
2023-03-04T08:04:57.559Z,19.13
2023-03-04T08:07:24.781Z,13.50
2023-03-04T08:09:51.916Z,18.40
2023-03-04T08:12:19.288Z,19.05
2023-03-04T08:14:46.391Z,15.30
2023-03-04T08:17:14.951Z,23.05
2023-03-04T08:19:42.092Z,20.85
2023-03-04T08:22:09.808Z,21.88
2023-03-04T08:24:37.199Z,20.40
2023-03-04T08:27:05.423Z,15.07
2023-03-04T08:29:32.635Z,19.65
2023-03-04T08:32:00.021Z,16.38
2023-03-04T08:34:28.440Z,16.38
2023-03-04T08:36:56.292Z,16.48
2023-03-04T08:39:23.467Z,13.60
2023-03-04T08:41:50.789Z,18.48
2023-03-04T08:44:18.122Z,15.95
2023-03-04T08:46:45.587Z,18.95
2023-03-04T08:49:15.321Z,17.30
2023-03-04T08:51:43.127Z,16.80
2023-03-04T08:54:10.643Z,18.55
2023-03-04T08:56:38.194Z,20.75
2023-03-04T08:59:05.628Z,19.17
2023-03-04T09:01:33.166Z,14.73
2023-03-04T09:04:00.736Z,14.15
2023-03-04T09:06:27.833Z,14.95
2023-03-04T09:08:55.078Z,18.13
2023-03-04T09:11:22.710Z,11.43
2023-03-04T09:13:51.807Z,13.35
2023-03-04T09:16:19.568Z,15.38
2023-03-04T09:18:46.784Z,13.15
2023-03-04T09:21:13.986Z,13.23
2023-03-04T09:23:41.613Z,9.77
2023-03-04T09:26:26.777Z,14.63
2023-03-04T09:28:57.431Z,13.07
2023-03-04T09:31:25.749Z,21.77
2023-03-04T09:33:53.881Z,11.23
2023-03-04T09:36:22.219Z,11.18
2023-03-04T09:38:49.767Z,13.45
2023-03-04T09:41:22.150Z,11.23
2023-03-04T09:43:51.701Z,14.80
2023-03-04T09:46:36.335Z,11.00
2023-03-04T09:49:06.730Z,12.30
2023-03-04T09:51:45.580Z,14.38
2023-03-04T09:54:26.697Z,11.35
2023-03-04T09:57:00.532Z,13.50
2023-03-04T09:59:43.572Z,8.18
2023-03-04T10:04:56.647Z,11.65
2023-03-04T10:07:32.062Z,8.15
2023-03-04T10:10:22.478Z,15.07
2023-03-04T10:12:53.537Z,11.77
2023-03-04T10:15:51.818Z,10.23
2023-03-04T10:18:23.262Z,11.32
2023-03-04T10:21:03.035Z,8.57
2023-03-04T10:23:33.963Z,13.73
2023-03-04T10:26:15.838Z,11.75
2023-03-04T10:28:47.655Z,16.53
2023-03-04T10:31:35.904Z,9.27
2023-03-04T10:34:06.045Z,10.80
2023-03-04T10:37:01.037Z,8.68
2023-03-04T10:39:35.292Z,14.75
2023-03-04T10:42:05.176Z,18.10
2023-03-04T10:44:35.083Z,10.45
2023-03-04T10:47:02.365Z,12.98
2023-03-04T10:49:31.508Z,12.02
2023-03-04T10:52:21.844Z,14.25
2023-03-04T10:54:53.345Z,9.73
2023-03-04T10:58:05.238Z,12.70
2023-03-04T11:00:37.383Z,12.23
2023-03-04T11:03:36.268Z,13.15
2023-03-04T11:06:13.455Z,11.77
2023-03-04T11:08:42.927Z,11.05
2023-03-04T11:11:35.209Z,8.70
2023-03-04T11:14:17.565Z,14.18
2023-03-04T11:16:57.796Z,11.10
2023-03-04T11:19:35.930Z,7.20
2023-03-04T11:22:03.946Z,13.98
2023-03-04T11:24:35.254Z,10.20
2023-03-04T11:27:19.137Z,18.70
2023-03-04T11:29:55.572Z,9.57
2023-03-04T11:32:28.895Z,10.20
2023-03-04T11:35:30.460Z,12.13
2023-03-04T11:38:17.966Z,9.40
2023-03-04T11:41:11.300Z,10.63
2023-03-04T11:43:47.284Z,8.75
2023-03-04T11:46:36.449Z,12.10
2023-03-04T11:50:01.102Z,13.80
2023-03-04T11:53:09.791Z,15.40
2023-03-04T11:56:11.757Z,9.55
2023-03-04T11:58:51.255Z,9.30
2023-03-04T12:01:29.079Z,11.45
2023-03-04T12:04:07.565Z,14.20
2023-03-04T12:06:47.183Z,13.88
2023-03-04T12:09:45.706Z,13.68
2023-03-04T12:12:24.933Z,9.45
2023-03-04T12:15:19.853Z,15.02
2023-03-04T12:17:59.319Z,10.35
2023-03-04T12:20:57.322Z,10.80
2023-03-04T12:24:09.410Z,14.73
2023-03-04T12:26:51.522Z,8.60
2023-03-04T12:29:52.498Z,10.83
2023-03-04T12:33:12.035Z,13.82
2023-03-04T12:35:59.156Z,7.95
2023-03-04T12:38:46.856Z,12.40
2023-03-04T12:41:23.491Z,12.27
2023-03-04T12:44:20.268Z,14.88
2023-03-04T12:47:12.143Z,10.43
2023-03-04T12:50:05.264Z,13.77
2023-03-04T12:53:01.169Z,12.27
2023-03-04T12:55:42.345Z,11.05
2023-03-04T12:58:31.627Z,12.27
2023-03-04T13:01:24.186Z,13.35
2023-03-04T13:04:05.421Z,16.05
2023-03-04T13:06:49.187Z,14.75
2023-03-04T13:09:41.448Z,14.43
2023-03-04T13:12:24.399Z,10.55
2023-03-04T13:15:12.801Z,8.63
2023-03-04T13:17:49.803Z,12.23
2023-03-04T13:20:39.355Z,16.38
2023-03-04T13:23:09.334Z,14.52
2023-03-04T13:25:46.997Z,9.55
2023-03-04T13:28:19.404Z,10.18
2023-03-04T13:30:53.598Z,10.35
2023-03-04T13:33:24.039Z,11.38
2023-03-04T13:36:06.763Z,10.68
2023-03-04T13:38:37.517Z,7.97
2023-03-04T13:41:19.852Z,9.40
2023-03-04T13:43:48.261Z,5.88
2023-03-04T13:46:18.789Z,8.48
2023-03-04T13:48:55.049Z,4.97
2023-03-04T13:51:52.372Z,9.98
2023-03-04T13:54:19.896Z,6.03
2023-03-04T13:56:50.356Z,4.95
2023-03-04T13:59:36.171Z,7.20
2023-03-04T14:02:12.241Z,8.80
2023-03-04T14:04:45.949Z,6.55
2023-03-04T14:07:28.262Z,6.07
2023-03-04T14:10:02.039Z,7.57
2023-03-04T14:12:31.066Z,7.47
2023-03-04T14:15:01.668Z,6.03
2023-03-04T14:17:32.615Z,5.57
2023-03-04T14:20:01.588Z,10.20
2023-03-04T14:22:34.146Z,8.63
2023-03-04T14:25:26.937Z,10.88
2023-03-04T14:28:12.261Z,7.45
2023-03-04T14:30:43.644Z,3.40
2023-03-04T14:33:44.824Z,10.23
2023-03-04T14:36:19.196Z,5.93
2023-03-04T14:38:52.944Z,9.88
2023-03-04T14:41:34.640Z,6.75
2023-03-04T14:44:24.161Z,7.97
2023-03-04T14:47:07.074Z,5.40
2023-03-04T14:49:37.323Z,10.38
2023-03-04T14:52:05.073Z,6.63
2023-03-04T14:54:41.692Z,5.93
2023-03-04T14:57:24.131Z,7.45
2023-03-04T14:59:52.378Z,8.18
2023-03-04T15:02:39.392Z,5.82
2023-03-04T15:05:27.114Z,4.35
2023-03-04T15:07:58.100Z,7.55
2023-03-04T15:10:38.604Z,6.88
2023-03-04T15:13:08.888Z,10.35
2023-03-04T15:15:43.049Z,5.90
2023-03-04T15:18:13.228Z,8.55
2023-03-04T15:20:40.814Z,9.60
2023-03-04T15:23:08.825Z,5.65
2023-03-04T15:25:37.101Z,8.98
2023-03-04T15:28:07.192Z,9.48
2023-03-04T15:30:35.877Z,5.20
2023-03-04T15:33:03.227Z,7.40
2023-03-04T15:35:33.554Z,8.13
2023-03-04T15:38:02.019Z,11.63
2023-03-04T15:40:29.272Z,6.55
2023-03-04T15:42:58.385Z,6.45
2023-03-04T15:45:32.739Z,5.97
2023-03-04T15:47:59.879Z,7.55
2023-03-04T15:50:31.041Z,7.45
2023-03-04T15:53:02.468Z,7.25
2023-03-04T15:55:32.003Z,7.72
2023-03-04T15:58:00.774Z,5.32
2023-03-04T16:00:28.161Z,5.15
2023-03-04T16:02:55.838Z,8.48
2023-03-04T16:05:22.895Z,6.15
2023-03-04T16:07:51.593Z,4.57
2023-03-04T16:10:21.883Z,4.30
2023-03-04T16:12:49.022Z,8.68
2023-03-04T16:15:22.359Z,8.07
2023-03-04T16:17:49.917Z,10.88
2023-03-04T16:20:24.764Z,6.30
2023-03-04T16:22:55.461Z,9.07
2023-03-04T16:25:24.336Z,3.90
2023-03-04T16:27:53.080Z,4.57
2023-03-04T16:30:23.763Z,8.55
2023-03-04T16:32:50.986Z,8.15
2023-03-04T16:35:20.542Z,7.20
2023-03-04T16:37:47.743Z,4.10
2023-03-04T16:40:17.158Z,7.15
2023-03-04T16:42:44.324Z,7.85
2023-03-04T16:45:23.982Z,6.60
2023-03-04T16:47:51.278Z,8.10
2023-03-04T16:50:21.238Z,5.60
2023-03-04T16:52:49.540Z,8.10
2023-03-04T16:55:30.607Z,7.68
2023-03-04T16:57:58.591Z,7.20
2023-03-04T17:00:28.505Z,5.00
2023-03-04T17:03:01.354Z,4.65
2023-03-04T17:05:31.517Z,6.10
2023-03-04T17:07:58.889Z,5.13
2023-03-04T17:10:26.602Z,7.95
2023-03-04T17:12:53.757Z,8.40
2023-03-04T17:15:21.609Z,5.57
2023-03-04T17:17:48.857Z,6.22
2023-03-04T17:20:19.003Z,6.47
2023-03-04T17:22:46.156Z,6.07
2023-03-04T17:25:13.474Z,4.20
2023-03-04T17:27:41.041Z,7.65
2023-03-04T17:30:11.528Z,6.07
2023-03-04T17:32:40.088Z,9.23
2023-03-04T17:35:09.112Z,5.38
2023-03-04T17:37:36.704Z,6.18
2023-03-04T17:40:14.400Z,7.80
2023-03-04T17:42:43.158Z,6.68
2023-03-04T17:45:11.292Z,8.20
2023-03-04T17:47:39.407Z,4.93
2023-03-04T17:50:08.046Z,6.28
2023-03-04T17:52:35.303Z,7.97
2023-03-04T17:55:02.478Z,3.13
2023-03-04T17:57:29.794Z,6.78
2023-03-04T17:59:57.913Z,9.38
2023-03-04T18:02:24.855Z,7.72
2023-03-04T18:04:52.057Z,7.55
2023-03-04T18:07:19.182Z,6.05
2023-03-04T18:09:47.497Z,6.32
2023-03-04T18:12:15.267Z,5.97
2023-03-04T18:14:42.316Z,5.32
2023-03-04T18:17:09.509Z,5.93
2023-03-04T18:19:36.896Z,5.88
2023-03-04T18:22:03.991Z,5.40
2023-03-04T18:24:31.373Z,5.53
2023-03-04T18:26:58.691Z,9.10
2023-03-04T18:29:26.147Z,9.50
2023-03-04T18:31:53.739Z,7.55
2023-03-04T18:34:20.777Z,8.55
2023-03-04T18:36:48.206Z,9.00
2023-03-04T18:39:17.641Z,7.28
2023-03-04T18:41:45.027Z,6.35
2023-03-04T18:44:14.862Z,7.25
2023-03-04T18:46:48.465Z,6.65
2023-03-04T18:49:15.865Z,9.15
2023-03-04T18:51:43.062Z,7.00
2023-03-04T18:54:10.240Z,9.07
2023-03-04T18:56:59.848Z,5.57
2023-03-04T18:59:37.130Z,12.43
2023-03-04T19:02:09.997Z,6.95
2023-03-04T19:04:37.354Z,13.80
2023-03-04T19:07:04.599Z,8.18
2023-03-04T19:09:31.899Z,8.00
2023-03-04T19:11:59.248Z,11.80
2023-03-04T19:14:26.600Z,7.60
2023-03-04T19:16:53.660Z,6.45
2023-03-04T19:19:20.706Z,10.68
2023-03-04T19:21:47.901Z,13.75
2023-03-04T19:24:15.239Z,8.18
2023-03-04T19:26:42.463Z,14.05
2023-03-04T19:29:09.708Z,8.30
2023-03-04T19:31:41.164Z,6.95
2023-03-04T19:34:09.597Z,7.37
2023-03-04T19:36:36.578Z,9.55
2023-03-04T19:39:03.876Z,6.35
2023-03-04T19:41:31.076Z,10.18
2023-03-04T19:43:58.458Z,9.77
2023-03-04T19:46:27.719Z,10.73
2023-03-04T19:48:54.771Z,9.43
2023-03-04T19:51:29.468Z,11.25
2023-03-04T19:53:56.704Z,10.05
2023-03-04T19:56:24.080Z,10.52
2023-03-04T19:58:55.356Z,8.77
2023-03-04T20:01:28.529Z,7.45
2023-03-04T20:04:01.312Z,9.30
2023-03-04T20:08:58.894Z,8.70
2023-03-04T20:11:27.208Z,9.77
2023-03-04T20:13:55.390Z,13.43
2023-03-04T20:16:22.481Z,8.85
2023-03-04T20:18:52.579Z,6.68
2023-03-04T20:21:19.815Z,7.68
2023-03-04T20:23:47.324Z,3.45
2023-03-04T20:26:14.693Z,0.25
2023-03-04T20:29:23.877Z,0.35
2023-03-04T20:31:52.979Z,1.00
2023-03-04T20:34:20.670Z,1.55
2023-03-04T20:36:48.040Z,0.80
2023-03-04T20:39:28.099Z,1.23
2023-03-04T20:41:58.242Z,3.63
2023-03-04T20:44:26.074Z,0.63
2023-03-04T20:46:53.440Z,0.88
2023-03-04T20:49:24.570Z,1.38
2023-03-04T20:52:03.461Z,2.00
2023-03-04T20:54:31.181Z,1.80
2023-03-04T20:56:58.977Z,0.17
2023-03-04T20:59:26.425Z,1.40
2023-03-04T21:01:54.700Z,0.32
2023-03-04T21:04:23.494Z,1.45
2023-03-04T21:06:52.092Z,1.67
2023-03-04T21:09:21.850Z,0.22
2023-03-04T21:11:51.598Z,0.40
2023-03-04T21:14:24.628Z,3.97
2023-03-04T21:16:57.463Z,1.05
2023-03-04T21:19:30.659Z,0.80
2023-03-04T21:21:59.325Z,0.30
2023-03-04T21:24:29.415Z,1.90
2023-03-04T21:26:57.155Z,0.40
2023-03-04T21:29:28.340Z,0.25
2023-03-04T21:32:12.962Z,0.47
2023-03-04T21:34:48.392Z,0.30
2023-03-04T21:37:15.739Z,0.38
2023-03-04T21:42:15.448Z,3.72
2023-03-04T21:44:49.682Z,1.75
2023-03-04T21:47:18.682Z,1.65
2023-03-04T21:49:46.411Z,0.90
2023-03-04T21:52:14.230Z,7.70
2023-03-04T21:54:41.526Z,3.05
2023-03-04T21:57:09.038Z,0.75
2023-03-04T21:59:36.352Z,0.82
2023-03-04T22:02:07.447Z,2.40
2023-03-04T22:04:34.583Z,0.20
2023-03-04T22:07:02.394Z,0.38
2023-03-04T22:09:29.908Z,0.28
2023-03-04T22:11:57.506Z,1.13
2023-03-04T22:14:25.237Z,1.55
2023-03-04T22:16:55.721Z,0.65
2023-03-04T22:19:25.434Z,0.32
2023-03-04T22:21:53.594Z,0.28
2023-03-04T22:24:21.367Z,0.40
2023-03-04T22:26:49.545Z,0.30
2023-03-04T22:29:16.979Z,0.52
2023-03-04T22:31:45.700Z,0.43
2023-03-04T22:34:15.086Z,1.40
2023-03-04T22:36:45.411Z,0.90
2023-03-04T22:39:20.735Z,1.13
2023-03-04T22:41:48.054Z,0.50
2023-03-04T22:44:15.695Z,0.20
2023-03-04T22:46:43.989Z,0.82
2023-03-04T22:49:13.991Z,4.22
2023-03-04T22:51:43.260Z,0.60
2023-03-04T22:54:15.360Z,0.10
2023-03-04T22:56:42.792Z,0.00
2023-03-04T22:59:10.363Z,0.03
2023-03-04T23:01:37.604Z,0.00
2023-03-04T23:04:05.166Z,0.10
2023-03-04T23:06:33.164Z,1.17
2023-03-04T23:09:00.809Z,1.52
2023-03-04T23:11:31.201Z,0.20
2023-03-04T23:13:59.312Z,0.20
2023-03-04T23:16:28.763Z,0.47
2023-03-04T23:18:58.210Z,0.45
2023-03-04T23:21:28.523Z,1.27
2023-03-04T23:23:56.202Z,0.20
2023-03-04T23:26:26.452Z,0.80
2023-03-04T23:28:56.174Z,0.05
2023-03-04T23:31:23.598Z,2.33
2023-03-04T23:33:51.300Z,0.63
2023-03-04T23:36:19.749Z,0.03
2023-03-04T23:38:48.765Z,0.70
2023-03-04T23:41:19.361Z,0.05
2023-03-04T23:43:47.876Z,0.43
2023-03-04T23:46:15.706Z,0.00
2023-03-04T23:48:46.571Z,0.95
2023-03-04T23:51:16.711Z,0.00
2023-03-04T23:53:44.649Z,0.63
2023-03-04T23:56:15.740Z,0.25
2023-03-04T23:58:48.560Z,0.43
